KAMN/AMN METAR and TAF weather

Enter ICAO airport designator
Station Type Date Time Source
KAMN METAR 2020/07/14 22:36 UTC NOAA

KAMN 142236Z AUTO 18004KT 10SM CLR 28/12 A3005 RMK AO2 T02770118


Station Type Date Time Source
KAMN Decoded METAR 2020/07/14 22:36 UTC NOAA

Alma, Gratiot Community Airport, MI, United States (KAMN) 43-19-19N 084-41-16W
Jul 14, 2020 - 06:36 PM EDT / 2020.07.14 2236 UTC
Wind: from the S (180 degrees) at 5 MPH (4 KT):0
Visibility: 10 mile(s):0
Sky conditions: clear
Temperature: 81.9 F (27.7 C)
Dew Point: 53.2 F (11.8 C)
Relative Humidity: 37%
Pressure (altimeter): 30.05 in. Hg (1017 hPa)
ob: KAMN 142236Z AUTO 18004KT 10SM CLR 28/12 A3005 RMK AO2 T02770118
cycle: 22

Station Type Date Time Source
KAMN TAF UTC NOAA

Error!

Example: see airport list